createdAt,value
2023-04-17T00:02:11.025Z,102259.03
2023-04-17T00:04:37.795Z,102259.47
2023-04-17T00:07:04.457Z,102256.72
2023-04-17T00:09:31.045Z,102256.50
2023-04-17T00:11:57.542Z,102254.56
2023-04-17T00:14:24.098Z,102254.41
2023-04-17T00:16:52.088Z,102256.81
2023-04-17T00:19:18.664Z,102258.81
2023-04-17T00:21:45.248Z,102255.00
2023-04-17T00:24:11.799Z,102257.06
2023-04-17T00:26:38.321Z,102251.25
2023-04-17T00:29:05.075Z,102254.84
2023-04-17T00:31:31.572Z,102257.81
2023-04-17T00:33:59.402Z,102249.09
2023-04-17T00:36:25.886Z,102247.41
2023-04-17T00:38:52.379Z,102249.97
2023-04-17T00:41:18.833Z,102246.84
2023-04-17T00:43:45.354Z,102244.28
2023-04-17T00:46:11.873Z,102238.03
2023-04-17T00:48:39.234Z,102239.09
2023-04-17T00:51:07.856Z,102234.91
2023-04-17T00:53:35.300Z,102235.84
2023-04-17T00:56:03.559Z,102234.66
2023-04-17T00:58:30.810Z,102233.69
2023-04-17T01:00:57.572Z,102231.44
2023-04-17T01:03:24.244Z,102242.28
2023-04-17T01:05:51.927Z,102240.91
2023-04-17T01:08:19.977Z,102240.31
2023-04-17T01:10:46.929Z,102235.50
2023-04-17T01:13:13.470Z,102239.66
2023-04-17T01:15:40.067Z,102242.75
2023-04-17T01:18:06.736Z,102238.16
2023-04-17T01:20:33.606Z,102241.16
2023-04-17T01:23:00.949Z,102240.91
2023-04-17T01:25:28.930Z,102243.06
2023-04-17T01:27:55.527Z,102236.13
2023-04-17T01:30:22.293Z,102231.78
2023-04-17T01:32:48.862Z,102235.13
2023-04-17T01:35:15.518Z,102238.19
2023-04-17T01:37:42.041Z,102242.75
2023-04-17T01:40:09.755Z,102232.25
2023-04-17T01:42:37.623Z,102236.50
2023-04-17T01:45:05.388Z,102240.53
2023-04-17T01:47:31.936Z,102239.66
2023-04-17T01:49:58.471Z,102235.31
2023-04-17T01:52:25.053Z,102228.75
2023-04-17T01:54:51.572Z,102242.28
2023-04-17T01:57:18.138Z,102250.22
2023-04-17T01:59:45.979Z,102242.16
2023-04-17T02:02:12.541Z,102245.09
2023-04-17T02:04:39.190Z,102243.44
2023-04-17T02:07:05.753Z,102247.00
2023-04-17T02:09:32.287Z,102246.25
2023-04-17T02:11:58.801Z,102246.16
2023-04-17T02:14:25.296Z,102245.16
2023-04-17T02:16:53.170Z,102249.38
2023-04-17T02:19:19.645Z,102240.91
2023-04-17T02:21:46.118Z,102239.72
2023-04-17T02:24:12.635Z,102241.38
2023-04-17T02:26:39.201Z,102248.53
2023-04-17T02:29:05.665Z,102241.75
2023-04-17T02:31:32.234Z,102242.97
2023-04-17T02:34:00.155Z,102248.44
2023-04-17T02:36:26.620Z,102249.09
2023-04-17T02:38:53.088Z,102248.66
2023-04-17T02:41:19.571Z,102248.22
2023-04-17T02:43:46.063Z,102243.59
2023-04-17T02:46:12.644Z,102244.59
2023-04-17T02:48:39.213Z,102241.63
2023-04-17T02:51:07.149Z,102240.78
2023-04-17T02:53:33.667Z,102247.91
2023-04-17T02:56:00.186Z,102242.59
2023-04-17T02:58:26.671Z,102246.91
2023-04-17T03:01:00.323Z,102249.53
2023-04-17T03:03:27.062Z,102249.84
2023-04-17T03:05:53.659Z,102253.56
2023-04-17T03:08:21.477Z,102251.19
2023-04-17T03:10:47.950Z,102250.81
2023-04-17T03:13:14.438Z,102253.94
2023-04-17T03:15:41.128Z,102253.25
2023-04-17T03:18:07.706Z,102251.94
2023-04-17T03:20:34.245Z,102260.56
2023-04-17T03:23:00.760Z,102252.88
2023-04-17T03:25:28.583Z,102255.41
2023-04-17T03:27:55.070Z,102253.09
2023-04-17T03:30:21.610Z,102249.53
2023-04-17T03:32:48.089Z,102254.25
2023-04-17T03:35:14.595Z,102250.81
2023-04-17T03:37:41.103Z,102255.19
2023-04-17T03:40:08.456Z,102248.41
2023-04-17T03:42:36.322Z,102248.16
2023-04-17T03:45:02.794Z,102251.53
2023-04-17T03:47:29.388Z,102251.97
2023-04-17T03:49:55.997Z,102248.81
2023-04-17T03:52:22.504Z,102255.56
2023-04-17T03:54:48.960Z,102246.56
2023-04-17T03:57:15.562Z,102249.19
2023-04-17T03:59:43.422Z,102249.00
2023-04-17T04:02:10.040Z,102248.19
2023-04-17T04:04:36.710Z,102241.31
2023-04-17T04:07:03.284Z,102248.63
2023-04-17T04:09:29.767Z,102250.44
2023-04-17T04:11:56.323Z,102244.72
2023-04-17T04:14:22.842Z,102246.28
2023-04-17T04:16:50.662Z,102239.22
2023-04-17T04:19:17.132Z,102250.25
2023-04-17T04:21:43.714Z,102252.06
2023-04-17T04:24:10.452Z,102250.50
2023-04-17T04:26:36.928Z,102254.50
2023-04-17T04:29:03.437Z,102253.75
2023-04-17T04:31:30.331Z,102249.88
2023-04-17T04:33:59.336Z,102257.66
2023-04-17T04:36:25.782Z,102257.28
2023-04-17T04:38:52.303Z,102264.75
2023-04-17T04:41:18.768Z,102264.47
2023-04-17T04:43:45.244Z,102265.16
2023-04-17T04:46:11.815Z,102262.78
2023-04-17T04:48:39.389Z,102258.00
2023-04-17T04:51:09.294Z,102263.13
2023-04-17T04:53:35.752Z,102265.03
2023-04-17T04:56:02.336Z,102275.75
2023-04-17T04:58:28.807Z,102273.66
2023-04-17T05:00:55.405Z,102274.06
2023-04-17T05:03:22.104Z,102272.06
2023-04-17T05:05:48.790Z,102268.44
2023-04-17T05:08:16.582Z,102271.28
2023-04-17T05:10:43.106Z,102270.72
2023-04-17T05:13:09.610Z,102274.69
2023-04-17T05:15:36.111Z,102274.56
2023-04-17T05:18:02.664Z,102276.38
2023-04-17T05:20:29.271Z,102282.72
2023-04-17T05:22:55.758Z,102277.22
2023-04-17T05:25:23.618Z,102281.88
2023-04-17T05:27:50.151Z,102284.13
2023-04-17T05:30:16.630Z,102281.97
2023-04-17T05:32:43.113Z,102281.31
2023-04-17T05:35:09.912Z,102286.75
2023-04-17T05:37:36.416Z,102293.22
2023-04-17T05:40:03.196Z,102298.31
2023-04-17T05:42:31.024Z,102291.81
2023-04-17T05:44:57.495Z,102304.88
2023-04-17T05:47:24.026Z,102303.19
2023-04-17T05:49:50.520Z,102302.41
2023-04-17T05:52:17.452Z,102301.06
2023-04-17T05:54:44.196Z,102313.38
2023-04-17T05:57:10.688Z,102310.09
2023-04-17T05:59:38.653Z,102308.59
2023-04-17T06:02:05.251Z,102313.88
2023-04-17T06:04:32.035Z,102312.06
2023-04-17T06:06:58.844Z,102310.72
2023-04-17T06:09:25.893Z,102312.19
2023-04-17T06:11:52.458Z,102313.69
2023-04-17T06:14:18.976Z,102314.94
2023-04-17T06:16:46.872Z,102313.97
2023-04-17T06:19:13.638Z,102301.25
2023-04-17T06:21:40.302Z,102308.41
2023-04-17T06:24:08.524Z,102309.56
2023-04-17T06:26:34.995Z,102311.47
2023-04-17T06:29:01.481Z,102314.44
2023-04-17T06:31:28.110Z,102315.41
2023-04-17T06:33:56.019Z,102315.28
2023-04-17T06:36:22.557Z,102318.91
2023-04-17T06:38:49.068Z,102316.50
2023-04-17T06:41:15.585Z,102330.63
2023-04-17T06:43:42.085Z,102328.41
2023-04-17T06:46:08.596Z,102327.91
2023-04-17T06:48:35.093Z,102335.03
2023-04-17T06:51:02.933Z,102326.41
2023-04-17T06:53:29.458Z,102330.09
2023-04-17T06:55:55.976Z,102331.63
2023-04-17T06:58:22.471Z,102340.63
2023-04-17T07:00:48.990Z,102338.63
2023-04-17T07:03:15.668Z,102333.09
2023-04-17T07:05:44.408Z,102340.72
2023-04-17T07:08:12.342Z,102346.66
2023-04-17T07:10:38.901Z,102349.31
2023-04-17T07:13:05.395Z,102350.00
2023-04-17T07:15:31.914Z,102357.00
2023-04-17T07:17:58.467Z,102360.63
2023-04-17T07:20:24.979Z,102360.44
2023-04-17T07:22:51.470Z,102361.69
2023-04-17T07:25:19.367Z,102368.00
2023-04-17T07:27:45.861Z,102357.19
2023-04-17T07:30:13.023Z,102367.63
2023-04-17T07:32:39.536Z,102369.81
2023-04-17T07:35:06.800Z,102371.34
2023-04-17T07:37:34.524Z,102370.56
2023-04-17T07:40:01.090Z,102378.75
2023-04-17T07:42:28.950Z,102379.31
2023-04-17T07:44:55.956Z,102383.78
2023-04-17T07:47:22.452Z,102384.44
2023-04-17T07:49:49.224Z,102382.41
2023-04-17T07:52:15.793Z,102384.63
2023-04-17T07:54:42.280Z,102390.03
2023-04-17T07:57:08.745Z,102394.19
2023-04-17T07:59:36.605Z,102394.59
2023-04-17T08:02:03.282Z,102398.69
2023-04-17T08:04:30.107Z,102396.75
2023-04-17T08:06:56.716Z,102397.16
2023-04-17T08:09:23.272Z,102396.91
2023-04-17T08:11:57.159Z,102398.50
2023-04-17T08:14:24.840Z,102395.22
2023-04-17T08:16:52.804Z,102400.91
2023-04-17T08:19:19.400Z,102396.84
2023-04-17T08:21:47.725Z,102392.00
2023-04-17T08:24:14.265Z,102399.72
2023-04-17T08:26:40.767Z,102400.19
2023-04-17T08:29:07.300Z,102398.31
2023-04-17T08:31:33.903Z,102405.53
2023-04-17T08:34:10.836Z,102406.06
2023-04-17T08:36:40.006Z,102408.06
2023-04-17T08:39:06.593Z,102405.53
2023-04-17T08:41:39.317Z,102412.50
2023-04-17T08:44:05.772Z,102410.38
2023-04-17T08:46:32.426Z,102409.38
2023-04-17T08:48:58.958Z,102417.75
2023-04-17T08:51:26.813Z,102405.44
2023-04-17T08:53:53.400Z,102412.50
2023-04-17T08:56:19.953Z,102413.56
2023-04-17T08:58:46.471Z,102393.78
2023-04-17T09:01:14.221Z,102407.19
2023-04-17T09:03:42.474Z,102403.09
2023-04-17T09:06:09.211Z,102394.63
2023-04-17T09:08:37.804Z,102392.72
2023-04-17T09:11:04.969Z,102398.75
2023-04-17T09:13:39.857Z,102397.78
2023-04-17T09:16:08.409Z,102393.78
2023-04-17T09:18:36.534Z,102394.28
2023-04-17T09:21:04.378Z,102400.94
2023-04-17T09:23:32.333Z,102395.44
2023-04-17T09:26:10.705Z,102399.34
2023-04-17T09:28:38.063Z,102407.78
2023-04-17T09:31:06.520Z,102399.78
2023-04-17T09:33:33.078Z,102404.16
2023-04-17T09:36:21.852Z,102403.19
2023-04-17T09:38:48.804Z,102399.03
2023-04-17T09:41:26.800Z,102398.34
2023-04-17T09:43:54.470Z,102396.03
2023-04-17T09:46:34.847Z,102391.22
2023-04-17T09:49:07.568Z,102398.19
2023-04-17T09:51:34.589Z,102394.06
2023-04-17T09:54:02.289Z,102403.13
2023-04-17T09:56:30.308Z,102406.16
2023-04-17T09:58:56.966Z,102402.72
2023-04-17T10:01:24.275Z,102399.66
2023-04-17T10:03:51.059Z,102403.66
2023-04-17T10:06:18.577Z,102399.66
2023-04-17T10:08:45.302Z,102402.72
2023-04-17T10:11:12.956Z,102392.31
2023-04-17T10:13:44.976Z,102398.75
2023-04-17T10:16:11.582Z,102402.94
2023-04-17T10:18:38.171Z,102391.56
2023-04-17T10:21:20.615Z,102393.72
2023-04-17T10:23:47.344Z,102402.50
2023-04-17T10:26:40.812Z,102398.44
2023-04-17T10:29:08.825Z,102391.59
2023-04-17T10:32:24.490Z,102400.13
2023-04-17T10:34:51.979Z,102394.13
2023-04-17T10:37:18.639Z,102393.88
2023-04-17T10:39:55.936Z,102393.28
2023-04-17T10:42:23.830Z,102390.72
2023-04-17T10:44:58.537Z,102392.94
2023-04-17T10:47:31.062Z,102384.31
2023-04-17T10:49:58.466Z,102380.59
2023-04-17T10:52:38.999Z,102386.09
2023-04-17T10:55:07.263Z,102396.22
2023-04-17T10:57:52.894Z,102385.72
2023-04-17T11:00:29.623Z,102382.34
2023-04-17T11:02:56.391Z,102380.09
2023-04-17T11:05:22.952Z,102399.06
2023-04-17T11:07:49.721Z,102377.13
2023-04-17T11:10:16.388Z,102383.31
2023-04-17T11:12:45.781Z,102381.06
2023-04-17T11:15:12.296Z,102371.09
2023-04-17T11:17:46.316Z,102368.47
2023-04-17T11:20:13.006Z,102371.69
2023-04-17T11:22:39.766Z,102372.81
2023-04-17T11:25:06.880Z,102368.88
2023-04-17T11:27:33.404Z,102366.47
2023-04-17T11:29:59.901Z,102369.00
2023-04-17T11:32:26.429Z,102361.69
2023-04-17T11:34:54.968Z,102369.84
2023-04-17T11:37:21.501Z,102362.94
2023-04-17T11:39:48.095Z,102361.19
2023-04-17T11:42:24.997Z,102357.72
2023-04-17T11:44:51.439Z,102355.56
2023-04-17T11:47:19.613Z,102348.56
2023-04-17T11:49:47.005Z,102360.34
2023-04-17T11:52:17.590Z,102359.63
2023-04-17T11:54:44.459Z,102365.22
2023-04-17T11:57:12.896Z,102355.88
2023-04-17T11:59:41.075Z,102354.81
2023-04-17T12:02:08.670Z,102350.50
2023-04-17T12:04:36.463Z,102358.53
2023-04-17T12:07:04.351Z,102348.69
2023-04-17T12:09:32.778Z,102342.38
2023-04-17T12:12:00.058Z,102360.81
2023-04-17T12:14:26.641Z,102352.16
2023-04-17T12:16:53.353Z,102340.78
2023-04-17T12:19:19.872Z,102346.03
2023-04-17T12:21:46.485Z,102347.00
2023-04-17T12:24:13.400Z,102348.94
2023-04-17T12:26:47.086Z,102346.44
2023-04-17T12:29:13.434Z,102342.69
2023-04-17T12:31:40.272Z,102342.69
2023-04-17T12:34:06.844Z,102340.84
2023-04-17T12:36:33.857Z,102353.69
2023-04-17T12:39:00.419Z,102348.38
2023-04-17T12:41:27.222Z,102359.22
2023-04-17T12:43:55.186Z,102347.13
2023-04-17T12:46:21.825Z,102354.72
2023-04-17T12:48:48.312Z,102350.66
2023-04-17T12:51:14.827Z,102353.63
2023-04-17T12:53:41.262Z,102344.03
2023-04-17T12:56:07.954Z,102347.53
2023-04-17T12:58:34.452Z,102343.31
2023-04-17T13:01:02.356Z,102341.31
2023-04-17T13:03:28.968Z,102337.03
2023-04-17T13:05:55.622Z,102334.75
2023-04-17T13:08:22.098Z,102338.25
2023-04-17T13:10:48.575Z,102326.28
2023-04-17T13:13:15.237Z,102332.88
2023-04-17T13:15:41.870Z,102325.38
2023-04-17T13:18:09.751Z,102328.88
2023-04-17T13:20:36.283Z,102320.53
2023-04-17T13:23:02.741Z,102321.59
2023-04-17T13:25:29.865Z,102318.50
2023-04-17T13:27:56.400Z,102305.66
2023-04-17T13:30:23.003Z,102319.91
2023-04-17T13:32:49.556Z,102325.91
2023-04-17T13:35:17.602Z,102324.91
2023-04-17T13:37:44.100Z,102310.78
2023-04-17T13:40:10.955Z,102314.88
2023-04-17T13:42:37.691Z,102302.78
2023-04-17T13:45:05.336Z,102311.06
2023-04-17T13:47:31.844Z,102311.38
2023-04-17T13:49:58.405Z,102297.53
2023-04-17T13:52:26.363Z,102303.31
2023-04-17T13:54:52.842Z,102302.59
2023-04-17T13:57:19.704Z,102308.25
2023-04-17T13:59:46.276Z,102297.47
2023-04-17T14:02:12.881Z,102291.06
2023-04-17T14:04:39.452Z,102303.59
2023-04-17T14:07:06.218Z,102297.44
2023-04-17T14:09:34.076Z,102295.13
2023-04-17T14:12:00.701Z,102288.81
2023-04-17T14:14:29.914Z,102290.72
2023-04-17T14:16:56.613Z,102292.44
2023-04-17T14:19:23.469Z,102281.06
2023-04-17T14:21:49.901Z,102281.06
2023-04-17T14:24:16.395Z,102282.81
2023-04-17T14:26:44.294Z,102292.16
2023-04-17T14:29:11.151Z,102287.50
2023-04-17T14:31:37.919Z,102285.53
2023-04-17T14:34:04.468Z,102263.31
2023-04-17T14:36:30.980Z,102275.97
2023-04-17T14:38:58.497Z,102277.84
2023-04-17T14:41:25.076Z,102267.28
2023-04-17T14:43:52.951Z,102269.06
2023-04-17T14:46:19.475Z,102263.97
2023-04-17T14:48:54.783Z,102264.84
2023-04-17T14:51:22.657Z,102261.25
2023-04-17T14:53:49.195Z,102267.38
2023-04-17T14:56:16.034Z,102273.25
2023-04-17T14:58:43.089Z,102272.66
2023-04-17T15:01:10.982Z,102261.78
2023-04-17T15:03:37.640Z,102266.56
2023-04-17T15:06:04.482Z,102268.72
2023-04-17T15:08:31.026Z,102267.47
2023-04-17T15:10:57.784Z,102268.09
2023-04-17T15:13:24.264Z,102264.31
2023-04-17T15:15:50.761Z,102252.53
2023-04-17T15:18:18.609Z,102251.69
2023-04-17T15:20:45.147Z,102253.44
2023-04-17T15:23:11.614Z,102249.84
2023-04-17T15:25:38.119Z,102255.44
2023-04-17T15:28:04.700Z,102252.44
2023-04-17T15:30:31.201Z,102259.25
2023-04-17T15:32:57.730Z,102251.50
2023-04-17T15:35:25.611Z,102254.31
2023-04-17T15:37:52.090Z,102255.56
2023-04-17T15:40:18.646Z,102251.78
2023-04-17T15:42:45.186Z,102245.13
2023-04-17T15:45:11.868Z,102248.09
2023-04-17T15:47:38.423Z,102238.66
2023-04-17T15:50:06.080Z,102246.00
2023-04-17T15:52:33.919Z,102235.94
2023-04-17T15:55:00.409Z,102238.03
2023-04-17T15:57:26.932Z,102247.06
2023-04-17T15:59:53.417Z,102248.41
2023-04-17T16:02:20.083Z,102243.75
2023-04-17T16:04:46.974Z,102250.63
2023-04-17T16:07:13.612Z,102241.88
2023-04-17T16:09:41.604Z,102245.63
2023-04-17T16:12:10.322Z,102246.28
2023-04-17T16:14:37.175Z,102251.34
2023-04-17T16:17:03.945Z,102244.72
2023-04-17T16:19:30.728Z,102246.31
2023-04-17T16:21:57.264Z,102241.03
2023-04-17T16:24:24.746Z,102244.13
2023-04-17T16:26:54.922Z,102237.34
2023-04-17T16:29:21.492Z,102239.81
2023-04-17T16:31:48.110Z,102244.91
2023-04-17T16:34:14.715Z,102244.53
2023-04-17T16:36:45.151Z,102244.91
2023-04-17T16:39:12.718Z,102241.41
2023-04-17T16:41:39.674Z,102249.22
2023-04-17T16:44:07.569Z,102248.75
2023-04-17T16:46:55.280Z,102249.72
2023-04-17T16:49:20.603Z,102246.84
2023-04-17T16:51:47.193Z,102240.78
2023-04-17T16:54:13.843Z,102243.22
2023-04-17T16:56:40.478Z,102241.34
2023-04-17T16:59:08.359Z,102240.88
2023-04-17T17:01:35.057Z,102246.00
2023-04-17T17:04:01.849Z,102235.72
2023-04-17T17:06:28.537Z,102238.22
2023-04-17T17:08:55.676Z,102236.72
2023-04-17T17:11:22.656Z,102241.59
2023-04-17T17:13:51.894Z,102239.72
2023-04-17T17:16:20.942Z,102241.97
2023-04-17T17:18:48.232Z,102235.38
2023-04-17T17:21:15.138Z,102239.34
2023-04-17T17:23:41.864Z,102245.72
2023-04-17T17:26:08.437Z,102239.88
2023-04-17T17:28:35.051Z,102240.78
2023-04-17T17:31:02.454Z,102237.34
2023-04-17T17:33:32.262Z,102236.44
2023-04-17T17:35:59.367Z,102237.50
2023-04-17T17:38:26.033Z,102231.38
2023-04-17T17:40:52.546Z,102234.34
2023-04-17T17:43:19.033Z,102237.63
2023-04-17T17:45:45.808Z,102236.63
2023-04-17T17:48:12.344Z,102237.63
2023-04-17T17:50:40.193Z,102236.47
2023-04-17T17:53:06.709Z,102234.88
2023-04-17T17:55:33.252Z,102236.50
2023-04-17T17:57:59.779Z,102244.00
2023-04-17T18:00:26.407Z,102239.41
2023-04-17T18:02:53.088Z,102241.94
2023-04-17T18:05:19.749Z,102241.59
2023-04-17T18:07:47.694Z,102242.44
2023-04-17T18:10:14.440Z,102240.25
2023-04-17T18:12:40.945Z,102237.22
2023-04-17T18:15:08.578Z,102236.03
2023-04-17T18:17:35.220Z,102245.06
2023-04-17T18:20:01.710Z,102240.59
2023-04-17T18:22:28.243Z,102245.94
2023-04-17T18:24:56.093Z,102240.47
2023-04-17T18:27:22.770Z,102255.84
2023-04-17T18:29:49.705Z,102253.19
2023-04-17T18:32:16.225Z,102253.06
2023-04-17T18:34:42.720Z,102253.78
2023-04-17T18:37:09.286Z,102255.44
2023-04-17T18:39:35.796Z,102256.28
2023-04-17T18:42:03.867Z,102246.72
2023-04-17T18:44:30.344Z,102250.97
2023-04-17T18:46:56.891Z,102259.66
2023-04-17T18:49:23.412Z,102256.69
2023-04-17T18:51:49.912Z,102259.91
2023-04-17T18:54:16.536Z,102267.44
2023-04-17T18:56:43.378Z,102262.81
2023-04-17T18:59:11.458Z,102262.38
2023-04-17T19:01:38.148Z,102255.78
2023-04-17T19:04:04.696Z,102258.69
2023-04-17T19:06:31.237Z,102266.13
2023-04-17T19:08:57.739Z,102269.06
2023-04-17T19:11:24.626Z,102258.81
2023-04-17T19:13:51.160Z,102262.56
2023-04-17T19:16:19.029Z,102262.88
2023-04-17T19:18:45.639Z,102262.41
2023-04-17T19:21:12.097Z,102264.50
2023-04-17T19:23:38.560Z,102270.13
2023-04-17T19:26:05.074Z,102265.06
2023-04-17T19:28:31.548Z,102265.31
2023-04-17T19:30:58.079Z,102267.13
2023-04-17T19:33:25.969Z,102271.19
2023-04-17T19:35:52.460Z,102276.50
2023-04-17T19:38:18.966Z,102274.81
2023-04-17T19:40:47.164Z,102278.16
2023-04-17T19:43:13.664Z,102275.88
2023-04-17T19:45:40.221Z,102274.44
2023-04-17T19:48:06.797Z,102269.41
2023-04-17T19:50:34.649Z,102272.31
2023-04-17T19:53:01.176Z,102275.25
2023-04-17T19:55:27.654Z,102277.19
2023-04-17T19:57:54.105Z,102276.09
2023-04-17T20:00:20.572Z,102274.09
2023-04-17T20:02:47.294Z,102277.00
2023-04-17T20:05:13.938Z,102272.53
2023-04-17T20:07:41.776Z,102272.91
2023-04-17T20:10:08.901Z,102273.91
2023-04-17T20:12:35.346Z,102278.50
2023-04-17T20:15:01.813Z,102280.47
2023-04-17T20:17:28.308Z,102279.63
2023-04-17T20:19:54.832Z,102279.28
2023-04-17T20:22:21.286Z,102280.16
2023-04-17T20:24:49.105Z,102280.53
2023-04-17T20:27:15.605Z,102275.00
2023-04-17T20:29:42.087Z,102274.50
2023-04-17T20:32:08.629Z,102274.50
2023-04-17T20:34:35.115Z,102280.78
2023-04-17T20:37:01.680Z,102274.41
2023-04-17T20:39:28.394Z,102275.97
2023-04-17T20:41:56.406Z,102279.94
2023-04-17T20:44:22.911Z,102282.03
2023-04-17T20:46:49.564Z,102275.00
2023-04-17T20:49:16.118Z,102276.22
2023-04-17T20:51:42.633Z,102279.09
2023-04-17T20:54:09.127Z,102270.16
2023-04-17T20:56:35.600Z,102271.63
2023-04-17T20:59:03.430Z,102267.47
2023-04-17T21:01:29.945Z,102273.47
2023-04-17T21:03:56.552Z,102270.78
2023-04-17T21:06:23.160Z,102275.41
2023-04-17T21:08:49.658Z,102271.63
2023-04-17T21:11:16.158Z,102261.84
2023-04-17T21:13:42.635Z,102269.94
2023-04-17T21:16:11.441Z,102261.50
2023-04-17T21:18:38.104Z,102264.09
2023-04-17T21:21:04.989Z,102265.19
2023-04-17T21:23:31.586Z,102268.22
2023-04-17T21:25:58.110Z,102262.56
2023-04-17T21:28:24.658Z,102266.56
2023-04-17T21:30:51.149Z,102266.69
2023-04-17T21:33:19.012Z,102265.00
2023-04-17T21:35:45.608Z,102259.19
2023-04-17T21:38:12.115Z,102272.25
2023-04-17T21:40:50.227Z,102266.41
2023-04-17T21:43:17.730Z,102268.00
2023-04-17T21:45:44.248Z,102262.16
2023-04-17T21:48:10.729Z,102264.34
2023-04-17T21:50:38.528Z,102258.91
2023-04-17T21:53:05.015Z,102259.75
2023-04-17T21:55:31.528Z,102265.44
2023-04-17T21:57:58.034Z,102263.84
2023-04-17T22:00:24.700Z,102270.91
2023-04-17T22:02:51.315Z,102267.03
2023-04-17T22:05:17.936Z,102261.72
2023-04-17T22:07:54.466Z,102263.59
2023-04-17T22:10:21.967Z,102261.81
2023-04-17T22:12:48.445Z,102263.03
2023-04-17T22:15:14.932Z,102260.66
2023-04-17T22:17:41.492Z,102256.81
2023-04-17T22:20:09.340Z,102255.13
2023-04-17T22:22:35.827Z,102260.19
2023-04-17T22:25:04.173Z,102258.91
2023-04-17T22:27:30.695Z,102261.94
2023-04-17T22:29:57.137Z,102264.13
2023-04-17T22:32:23.784Z,102264.13
2023-04-17T22:34:50.234Z,102265.84
2023-04-17T22:37:16.767Z,102268.16
2023-04-17T22:39:43.249Z,102267.88
2023-04-17T22:42:11.029Z,102263.78
2023-04-17T22:44:37.491Z,102269.44
2023-04-17T22:47:04.090Z,102264.25
2023-04-17T22:49:30.548Z,102270.06
2023-04-17T22:51:56.979Z,102273.59
2023-04-17T22:54:23.582Z,102269.47
2023-04-17T22:56:50.090Z,102272.13
2023-04-17T22:59:17.865Z,102280.47
2023-04-17T23:01:44.312Z,102278.19
2023-04-17T23:04:10.925Z,102278.66
2023-04-17T23:06:37.511Z,102272.00
2023-04-17T23:09:04.024Z,102277.56
2023-04-17T23:11:31.417Z,102275.41
2023-04-17T23:13:57.902Z,102280.09
2023-04-17T23:16:25.903Z,102281.66
2023-04-17T23:18:52.398Z,102285.28
2023-04-17T23:21:18.838Z,102281.25
2023-04-17T23:23:48.050Z,102281.97
2023-04-17T23:26:15.011Z,102284.59
2023-04-17T23:28:41.527Z,102288.25
2023-04-17T23:31:08.032Z,102279.03
2023-04-17T23:33:35.898Z,102279.88
2023-04-17T23:36:02.532Z,102282.38
2023-04-17T23:38:29.122Z,102278.41
2023-04-17T23:40:55.595Z,102285.97
2023-04-17T23:43:22.104Z,102287.59
2023-04-17T23:45:48.604Z,102282.63
2023-04-17T23:48:15.182Z,102287.03
2023-04-17T23:50:43.982Z,102283.41
2023-04-17T23:53:10.458Z,102282.09
2023-04-17T23:55:36.928Z,102291.34
2023-04-17T23:58:03.407Z,102292.44
